createdAt,value
2019-04-03T00:02:04.043Z,13.10
2019-04-03T00:04:34.142Z,13.10
2019-04-03T00:07:03.866Z,13.10
2019-04-03T00:09:33.082Z,13.20
2019-04-03T00:12:01.595Z,13.20
2019-04-03T00:14:30.137Z,13.00
2019-04-03T00:16:58.667Z,12.90
2019-04-03T00:19:27.204Z,12.90
2019-04-03T00:21:55.735Z,12.80
2019-04-03T00:24:24.292Z,12.70
2019-04-03T00:26:52.993Z,12.60
2019-04-03T00:29:22.644Z,12.40
2019-04-03T00:31:53.099Z,12.40
2019-04-03T00:34:23.374Z,12.30
2019-04-03T00:36:53.260Z,12.20
2019-04-03T00:39:23.971Z,12.10
2019-04-03T00:41:52.941Z,12.00
2019-04-03T00:44:24.001Z,11.90
2019-04-03T00:46:55.166Z,11.80
2019-04-03T00:49:24.424Z,11.70
2019-04-03T00:51:53.115Z,11.60
2019-04-03T00:54:21.677Z,11.60
2019-04-03T00:56:50.195Z,11.60
2019-04-03T00:59:18.685Z,11.60
2019-04-03T01:01:47.356Z,11.50
2019-04-03T01:04:15.955Z,11.40
2019-04-03T01:06:44.512Z,11.30
2019-04-03T01:09:13.051Z,11.30
2019-04-03T01:11:41.595Z,11.40
2019-04-03T01:14:10.128Z,11.60
2019-04-03T01:16:38.683Z,11.80
2019-04-03T01:19:07.275Z,11.80
2019-04-03T01:21:37.186Z,11.80
2019-04-03T01:24:08.277Z,11.90
2019-04-03T01:26:36.448Z,12.00
2019-04-03T01:29:05.063Z,12.10
2019-04-03T01:31:33.596Z,12.30
2019-04-03T01:34:02.219Z,12.50
2019-04-03T01:36:30.747Z,12.50
2019-04-03T01:38:59.335Z,12.60
2019-04-03T01:41:27.815Z,12.60
2019-04-03T01:43:56.375Z,12.50
2019-04-03T01:46:27.242Z,12.40
2019-04-03T01:48:55.060Z,12.30
2019-04-03T01:51:23.605Z,12.20
2019-04-03T01:53:52.136Z,12.10
2019-04-03T01:56:20.657Z,11.90
2019-04-03T01:58:49.198Z,11.70
2019-04-03T02:01:17.754Z,11.60
2019-04-03T02:03:46.287Z,11.60
2019-04-03T02:06:14.820Z,11.50
2019-04-03T02:08:44.888Z,11.50
2019-04-03T02:11:13.616Z,11.60
2019-04-03T02:13:42.443Z,11.50
2019-04-03T02:16:10.974Z,11.60
2019-04-03T02:18:39.518Z,11.60
2019-04-03T02:21:08.000Z,11.40
2019-04-03T02:23:36.522Z,11.40
2019-04-03T02:26:05.148Z,11.40
2019-04-03T02:28:34.932Z,11.40
2019-04-03T02:31:03.832Z,11.40
2019-04-03T02:33:32.437Z,11.20
2019-04-03T02:36:01.061Z,11.10
2019-04-03T02:38:29.796Z,11.00
2019-04-03T02:40:58.466Z,11.00
2019-04-03T02:43:27.007Z,10.90
2019-04-03T02:45:56.786Z,10.90
2019-04-03T02:48:25.498Z,10.80
2019-04-03T02:50:54.201Z,10.70
2019-04-03T02:53:22.924Z,10.60
2019-04-03T02:55:51.467Z,10.50
2019-04-03T02:58:22.045Z,10.40
2019-04-03T03:00:50.344Z,10.20
2019-04-03T03:03:18.892Z,9.90
2019-04-03T03:05:47.534Z,9.70
2019-04-03T03:08:17.378Z,9.60
2019-04-03T03:10:48.982Z,9.50
2019-04-03T03:13:18.792Z,9.60
2019-04-03T03:15:48.674Z,9.50
2019-04-03T03:18:17.641Z,9.40
2019-04-03T03:20:46.425Z,9.30
2019-04-03T03:23:15.789Z,9.20
2019-04-03T03:25:45.953Z,9.20
2019-04-03T03:28:15.657Z,9.10
2019-04-03T03:30:54.732Z,9.10
2019-04-03T03:33:33.184Z,9.00
2019-04-03T03:35:48.911Z,9.00
2019-04-03T03:38:20.236Z,9.00
2019-04-03T03:40:49.452Z,8.90
2019-04-03T03:43:18.753Z,8.80
2019-04-03T03:45:51.437Z,8.50
2019-04-03T03:48:19.011Z,8.40
2019-04-03T03:50:48.096Z,8.40
2019-04-03T03:53:17.053Z,8.40
2019-04-03T03:55:46.132Z,8.30
2019-04-03T03:58:14.799Z,8.20
2019-04-03T04:00:44.394Z,8.00
2019-04-03T04:03:15.048Z,8.00
2019-04-03T04:05:43.903Z,8.00
2019-04-03T04:08:13.071Z,8.00
2019-04-03T04:10:43.773Z,8.00
2019-04-03T04:13:15.531Z,7.90
2019-04-03T04:15:45.491Z,7.80
2019-04-03T04:18:15.307Z,7.70
2019-04-03T04:20:44.824Z,7.70
2019-04-03T04:23:13.876Z,7.60
2019-04-03T04:25:44.119Z,7.70
2019-04-03T04:28:13.779Z,7.60
2019-04-03T04:30:44.788Z,7.60
2019-04-03T04:33:14.911Z,7.50
2019-04-03T04:35:44.280Z,7.50
2019-04-03T04:38:13.042Z,7.50
2019-04-03T04:40:41.609Z,7.40
2019-04-03T04:43:10.096Z,7.30
2019-04-03T04:45:42.196Z,7.30
2019-04-03T04:48:09.932Z,7.20
2019-04-03T04:50:38.468Z,7.10
2019-04-03T04:53:07.824Z,7.10
2019-04-03T04:55:36.416Z,7.20
2019-04-03T04:58:05.333Z,7.20
2019-04-03T05:00:34.087Z,7.00
2019-04-03T05:03:02.688Z,6.90
2019-04-03T05:05:31.584Z,6.80
2019-04-03T05:08:02.230Z,6.70
2019-04-03T05:10:30.355Z,6.70
2019-04-03T05:12:58.914Z,6.50
2019-04-03T05:15:27.440Z,6.50
2019-04-03T05:17:57.687Z,6.50
2019-04-03T05:20:26.307Z,6.50
2019-04-03T05:22:55.335Z,6.50
2019-04-03T05:25:24.303Z,6.50
2019-04-03T05:27:52.853Z,6.40
2019-04-03T05:30:29.342Z,6.40
2019-04-03T05:32:58.817Z,6.40
2019-04-03T05:35:27.611Z,6.40
2019-04-03T05:37:56.159Z,6.40
2019-04-03T05:40:26.145Z,6.50
2019-04-03T05:42:55.037Z,6.50
2019-04-03T05:45:23.699Z,6.70
2019-04-03T05:47:52.324Z,6.80
2019-04-03T05:50:20.854Z,6.80
2019-04-03T05:52:49.610Z,6.90
2019-04-03T05:55:18.212Z,7.00
2019-04-03T05:57:46.899Z,7.10
2019-04-03T06:00:15.767Z,7.20
2019-04-03T06:02:44.325Z,7.10
2019-04-03T06:05:13.245Z,7.10
2019-04-03T06:07:41.981Z,7.10
2019-04-03T06:10:10.655Z,7.00
2019-04-03T06:12:39.457Z,7.00
2019-04-03T06:15:09.805Z,7.00
2019-04-03T06:17:38.650Z,7.00
2019-04-03T06:20:10.385Z,7.10
2019-04-03T06:22:37.762Z,7.10
2019-04-03T06:25:06.972Z,7.20
2019-04-03T06:27:35.586Z,7.30
2019-04-03T06:30:06.303Z,7.40
2019-04-03T06:32:34.828Z,7.50
2019-04-03T06:35:03.608Z,7.80
2019-04-03T06:37:32.264Z,8.20
2019-04-03T06:40:02.858Z,8.60
2019-04-03T06:42:31.024Z,8.90
2019-04-03T06:44:59.547Z,9.10
2019-04-03T06:47:28.090Z,9.20
2019-04-03T06:49:56.551Z,9.20
2019-04-03T06:52:25.496Z,9.50
2019-04-03T06:54:54.003Z,9.80
2019-04-03T06:57:22.531Z,10.00
2019-04-03T06:59:51.244Z,10.40
2019-04-03T07:02:20.369Z,10.80
2019-04-03T07:04:48.907Z,11.30
2019-04-03T07:07:31.524Z,11.90
2019-04-03T07:09:50.321Z,12.60
2019-04-03T07:12:17.864Z,12.90
2019-04-03T07:14:46.587Z,12.90
2019-04-03T07:17:15.193Z,12.90
2019-04-03T07:19:43.720Z,12.80
2019-04-03T07:22:12.275Z,12.90
2019-04-03T07:24:40.808Z,13.10
2019-04-03T07:27:09.422Z,13.40
2019-04-03T07:29:38.015Z,13.80
2019-04-03T07:32:06.635Z,14.10
2019-04-03T07:34:35.218Z,14.50
2019-04-03T07:37:04.190Z,14.80
2019-04-03T07:39:32.737Z,15.10
2019-04-03T07:42:01.523Z,15.30
2019-04-03T07:44:30.713Z,15.20
2019-04-03T07:46:59.327Z,15.20
2019-04-03T07:49:27.899Z,15.20
2019-04-03T07:51:56.578Z,15.20
2019-04-03T07:54:26.780Z,15.20
2019-04-03T07:56:57.337Z,15.10
2019-04-03T07:59:26.091Z,15.40
2019-04-03T08:01:54.684Z,15.60
2019-04-03T08:04:24.733Z,15.90
2019-04-03T08:06:53.516Z,16.30
2019-04-03T08:09:22.030Z,16.70
2019-04-03T08:11:50.564Z,17.00
2019-04-03T08:14:19.799Z,17.10
2019-04-03T08:16:48.845Z,17.00
2019-04-03T08:19:17.900Z,16.90
2019-04-03T08:21:46.519Z,16.70
2019-04-03T08:24:15.370Z,16.70
2019-04-03T08:26:43.971Z,16.90
2019-04-03T08:29:12.598Z,17.20
2019-04-03T08:31:44.230Z,17.40
2019-04-03T08:34:16.594Z,17.60
2019-04-03T08:36:41.650Z,17.80
2019-04-03T08:39:10.496Z,17.90
2019-04-03T08:41:39.020Z,18.10
2019-04-03T08:44:08.652Z,18.00
2019-04-03T08:46:37.903Z,18.10
2019-04-03T08:49:06.518Z,18.10
2019-04-03T08:51:35.145Z,18.30
2019-04-03T08:54:04.200Z,18.40
2019-04-03T08:56:32.978Z,18.20
2019-04-03T08:59:01.595Z,18.30
2019-04-03T09:01:30.252Z,18.50
2019-04-03T09:03:59.822Z,18.80
2019-04-03T09:06:28.423Z,19.10
2019-04-03T09:08:58.183Z,19.10
2019-04-03T09:11:27.203Z,18.90
2019-04-03T09:13:56.330Z,18.90
2019-04-03T09:16:25.006Z,19.00
2019-04-03T09:18:53.577Z,19.00
2019-04-03T09:21:22.223Z,19.00
2019-04-03T09:23:50.765Z,18.80
2019-04-03T09:26:19.221Z,18.90
2019-04-03T09:28:47.760Z,19.10
2019-04-03T09:31:17.125Z,19.20
2019-04-03T09:33:46.485Z,19.40
2019-04-03T09:36:15.004Z,19.50
2019-04-03T09:38:43.786Z,19.30
2019-04-03T09:41:12.375Z,19.60
2019-04-03T09:43:41.000Z,19.90
2019-04-03T09:46:09.583Z,20.20
2019-04-03T09:48:38.131Z,20.30
2019-04-03T09:51:09.137Z,20.30
2019-04-03T09:53:36.923Z,20.40
2019-04-03T09:56:08.045Z,20.20
2019-04-03T09:58:36.247Z,20.00
2019-04-03T10:01:05.479Z,19.80
2019-04-03T10:03:34.031Z,20.00
2019-04-03T10:06:02.805Z,20.00
2019-04-03T10:08:31.734Z,19.90
2019-04-03T10:11:00.331Z,20.10
2019-04-03T10:13:29.114Z,20.00
2019-04-03T10:15:57.666Z,20.00
2019-04-03T10:18:26.139Z,20.20
2019-04-03T10:20:54.674Z,19.90
2019-04-03T10:23:23.409Z,19.90
2019-04-03T10:25:53.516Z,19.90
2019-04-03T10:28:22.350Z,20.10
2019-04-03T10:30:52.830Z,20.50
2019-04-03T10:33:21.173Z,20.70
2019-04-03T10:35:50.048Z,20.90
2019-04-03T10:38:19.021Z,21.20
2019-04-03T10:40:47.726Z,21.30
2019-04-03T10:43:16.527Z,21.40
2019-04-03T10:45:45.446Z,21.50
2019-04-03T10:48:13.995Z,21.40
2019-04-03T10:50:42.662Z,21.40
2019-04-03T10:53:11.274Z,21.70
2019-04-03T10:55:40.131Z,21.60
2019-04-03T10:58:09.188Z,21.20
2019-04-03T11:00:38.217Z,21.10
2019-04-03T11:03:07.335Z,21.10
2019-04-03T11:05:36.123Z,21.10
2019-04-03T11:08:04.860Z,21.20
2019-04-03T11:10:33.396Z,21.50
2019-04-03T11:13:03.581Z,21.80
2019-04-03T11:15:32.562Z,22.10
2019-04-03T11:18:01.165Z,22.30
2019-04-03T11:20:29.702Z,22.40
2019-04-03T11:23:05.954Z,22.40
2019-04-03T11:25:28.481Z,22.40
2019-04-03T11:27:57.256Z,22.50
2019-04-03T11:30:26.431Z,22.30
2019-04-03T11:32:54.996Z,22.20
2019-04-03T11:35:23.771Z,22.20
2019-04-03T11:37:52.407Z,22.10
2019-04-03T11:40:24.177Z,22.10
2019-04-03T11:42:52.262Z,22.00
2019-04-03T11:45:21.322Z,21.90
2019-04-03T11:47:50.155Z,21.70
2019-04-03T11:50:19.226Z,21.80
2019-04-03T11:52:47.957Z,21.50
2019-04-03T11:55:16.717Z,21.60
2019-04-03T11:57:47.535Z,22.00
2019-04-03T12:00:20.923Z,22.30
2019-04-03T12:02:49.647Z,21.60
2019-04-03T12:05:20.582Z,21.00
2019-04-03T12:07:48.980Z,20.80
2019-04-03T12:10:17.841Z,21.00
2019-04-03T12:12:46.415Z,21.10
2019-04-03T12:15:16.483Z,21.10
2019-04-03T12:17:45.488Z,21.30
2019-04-03T12:20:16.587Z,21.20
2019-04-03T12:22:45.471Z,21.40
2019-04-03T12:25:15.096Z,21.40
2019-04-03T12:27:46.018Z,21.40
2019-04-03T12:30:14.459Z,21.30
2019-04-03T12:32:47.934Z,21.30
2019-04-03T12:35:13.988Z,21.50
2019-04-03T12:37:42.870Z,21.40
2019-04-03T12:40:12.060Z,21.10
2019-04-03T12:42:40.610Z,20.90
2019-04-03T12:45:09.763Z,21.00
2019-04-03T12:47:38.312Z,21.00
2019-04-03T12:50:11.805Z,20.90
2019-04-03T12:52:39.734Z,20.60
2019-04-03T12:55:08.635Z,20.20
2019-04-03T12:57:39.188Z,20.00
2019-04-03T13:00:13.355Z,19.90
2019-04-03T13:02:42.488Z,19.90
2019-04-03T13:05:12.076Z,19.90
2019-04-03T13:07:40.764Z,19.80
2019-04-03T13:10:10.014Z,19.80
2019-04-03T13:12:38.663Z,19.70
2019-04-03T13:15:09.331Z,19.70
2019-04-03T13:17:38.234Z,19.60
2019-04-03T13:20:08.143Z,19.60
2019-04-03T13:22:36.926Z,19.40
2019-04-03T13:25:09.631Z,19.50
2019-04-03T13:27:38.218Z,19.40
2019-04-03T13:30:12.413Z,19.30
2019-04-03T13:32:41.103Z,19.30
2019-04-03T13:35:10.218Z,19.20
2019-04-03T13:37:38.866Z,19.10
2019-04-03T13:40:09.851Z,18.90
2019-04-03T13:42:38.672Z,18.90
2019-04-03T13:45:09.351Z,19.00
2019-04-03T13:47:41.604Z,19.10
2019-04-03T13:50:09.771Z,19.10
2019-04-03T13:52:42.533Z,19.10
2019-04-03T13:55:09.151Z,19.00
2019-04-03T13:57:37.774Z,18.90
2019-04-03T14:00:19.087Z,18.90
2019-04-03T14:02:37.897Z,18.80
2019-04-03T14:05:07.766Z,18.80
2019-04-03T14:07:38.165Z,18.70
2019-04-03T14:10:08.775Z,18.80
2019-04-03T14:12:41.139Z,18.80
2019-04-03T14:15:07.735Z,18.80
2019-04-03T14:17:37.159Z,18.70
2019-04-03T14:20:07.564Z,18.60
2019-04-03T14:22:36.268Z,18.60
2019-04-03T14:25:17.869Z,18.60
2019-04-03T14:27:37.778Z,18.70
2019-04-03T14:30:11.920Z,18.60
2019-04-03T14:32:41.524Z,18.50
2019-04-03T14:35:40.464Z,18.50
2019-04-03T14:37:41.419Z,18.50
2019-04-03T14:40:12.258Z,18.60
2019-04-03T14:42:40.421Z,18.60
2019-04-03T14:45:09.197Z,18.60
2019-04-03T14:47:37.738Z,18.50
2019-04-03T14:50:07.292Z,18.50
2019-04-03T14:52:36.243Z,18.30
2019-04-03T14:55:17.004Z,18.30
2019-04-03T14:57:37.189Z,18.40
2019-04-03T15:00:24.868Z,18.30
2019-04-03T15:02:42.496Z,18.30
2019-04-03T15:05:11.185Z,18.30
2019-04-03T15:07:40.395Z,18.30
2019-04-03T15:10:09.605Z,18.30
2019-04-03T15:12:39.814Z,18.30
2019-04-03T15:15:09.722Z,18.30
2019-04-03T15:17:38.964Z,18.30
2019-04-03T15:20:09.595Z,18.30
2019-04-03T15:22:38.279Z,18.20
2019-04-03T15:25:08.653Z,18.10
2019-04-03T15:27:37.355Z,18.00
2019-04-03T15:30:12.025Z,18.00
2019-04-03T15:32:40.726Z,17.90
2019-04-03T15:35:10.255Z,17.90
2019-04-03T15:37:41.474Z,17.90
2019-04-03T15:40:10.187Z,17.80
2019-04-03T15:42:40.721Z,17.60
2019-04-03T15:45:11.324Z,17.40
2019-04-03T15:47:45.152Z,17.40
2019-04-03T15:50:10.674Z,17.40
2019-04-03T15:52:39.321Z,17.40
2019-04-03T15:55:09.626Z,17.40
2019-04-03T15:57:39.950Z,17.30
2019-04-03T16:00:13.495Z,17.30
2019-04-03T16:02:45.119Z,17.30
2019-04-03T16:05:13.023Z,17.20
2019-04-03T16:07:42.678Z,17.10
2019-04-03T16:10:11.789Z,17.10
2019-04-03T16:12:42.902Z,17.00
2019-04-03T16:15:10.740Z,17.00
2019-04-03T16:17:39.827Z,17.00
2019-04-03T16:20:08.654Z,17.00
2019-04-03T16:22:37.199Z,17.00
2019-04-03T16:25:08.163Z,17.00
2019-04-03T16:27:37.803Z,16.90
2019-04-03T16:30:14.182Z,16.80
2019-04-03T16:32:41.325Z,16.80
2019-04-03T16:35:12.733Z,16.70
2019-04-03T16:37:40.722Z,16.60
2019-04-03T16:40:10.108Z,16.60
2019-04-03T16:42:38.754Z,16.60
2019-04-03T16:45:10.577Z,16.70
2019-04-03T16:47:39.441Z,16.80
2019-04-03T16:50:09.682Z,16.70
2019-04-03T16:52:38.762Z,16.70
2019-04-03T16:55:08.034Z,16.70
2019-04-03T16:57:37.050Z,16.70
2019-04-03T17:00:08.942Z,16.60
2019-04-03T17:02:37.894Z,16.60
2019-04-03T17:05:10.469Z,16.50
2019-04-03T17:07:38.460Z,16.50
2019-04-03T17:10:09.762Z,16.50
2019-04-03T17:12:38.102Z,16.40
2019-04-03T17:15:09.619Z,16.40
2019-04-03T17:17:39.006Z,16.40
2019-04-03T17:20:09.494Z,16.50
2019-04-03T17:22:40.894Z,16.50
2019-04-03T17:25:09.219Z,16.40
2019-04-03T17:27:37.832Z,16.40
2019-04-03T17:30:11.382Z,16.40
2019-04-03T17:32:40.050Z,16.40
2019-04-03T17:35:09.040Z,16.30
2019-04-03T17:37:37.648Z,16.30
2019-04-03T17:40:10.571Z,16.30
2019-04-03T17:42:40.037Z,16.20
2019-04-03T17:45:09.360Z,16.20
2019-04-03T17:47:37.960Z,16.10
2019-04-03T17:50:07.821Z,16.00
2019-04-03T17:52:37.085Z,15.90
2019-04-03T17:55:10.903Z,15.80
2019-04-03T17:57:39.524Z,15.80
2019-04-03T18:00:13.698Z,15.70
2019-04-03T18:02:42.375Z,15.60
2019-04-03T18:05:11.161Z,15.50
2019-04-03T18:07:39.753Z,15.50
2019-04-03T18:10:12.454Z,15.40
2019-04-03T18:12:39.326Z,15.40
2019-04-03T18:15:09.659Z,15.30
2019-04-03T18:17:38.272Z,15.10
2019-04-03T18:20:08.131Z,14.90
2019-04-03T18:22:36.912Z,14.80
2019-04-03T18:25:08.801Z,14.80
2019-04-03T18:27:37.441Z,14.70
2019-04-03T18:30:11.444Z,14.50
2019-04-03T18:32:38.485Z,14.10
2019-04-03T18:35:07.865Z,13.70
2019-04-03T18:37:36.529Z,13.50
2019-04-03T18:40:06.689Z,13.50
2019-04-03T18:42:35.217Z,13.50
2019-04-03T18:45:05.110Z,13.50
2019-04-03T18:47:41.004Z,13.50
2019-04-03T18:50:04.604Z,13.60
2019-04-03T18:52:33.104Z,13.60
2019-04-03T18:55:01.775Z,13.60
2019-04-03T18:57:30.452Z,13.60
2019-04-03T19:00:00.701Z,13.60
2019-04-03T19:02:29.247Z,13.50
2019-04-03T19:05:02.253Z,13.50
2019-04-03T19:07:47.385Z,13.40
2019-04-03T19:10:18.206Z,13.30
2019-04-03T19:12:46.431Z,13.00
2019-04-03T19:15:15.130Z,12.90
2019-04-03T19:17:43.647Z,12.80
2019-04-03T19:20:12.273Z,12.70
2019-04-03T19:22:40.864Z,12.60
2019-04-03T19:25:09.852Z,12.50
2019-04-03T19:27:38.446Z,12.40
2019-04-03T19:30:08.055Z,12.30
2019-04-03T19:32:36.692Z,12.10
2019-04-03T19:35:09.247Z,11.90
2019-04-03T19:37:37.352Z,11.70
2019-04-03T19:40:09.671Z,11.70
2019-04-03T19:42:38.710Z,11.40
2019-04-03T19:45:08.087Z,11.20
2019-04-03T19:47:36.742Z,11.20
2019-04-03T19:50:07.770Z,11.40
2019-04-03T19:52:37.315Z,11.40
2019-04-03T19:55:07.695Z,11.10
2019-04-03T19:57:36.299Z,11.20
2019-04-03T20:00:08.559Z,11.30
2019-04-03T20:02:38.255Z,11.30
2019-04-03T20:05:07.761Z,11.40
2019-04-03T20:07:36.414Z,11.40
2019-04-03T20:10:09.803Z,11.40
2019-04-03T20:12:38.694Z,11.40
2019-04-03T20:15:08.270Z,11.40
2019-04-03T20:17:36.885Z,11.40
2019-04-03T20:20:07.279Z,11.30
2019-04-03T20:22:37.415Z,11.30
2019-04-03T20:25:06.487Z,11.10
2019-04-03T20:27:35.089Z,10.90
2019-04-03T20:30:06.299Z,10.80
2019-04-03T20:32:34.817Z,10.70
2019-04-03T20:35:03.840Z,10.50
2019-04-03T20:37:32.372Z,10.20
2019-04-03T20:40:00.828Z,10.00
2019-04-03T20:42:29.374Z,10.00
2019-04-03T20:44:58.234Z,10.30
2019-04-03T20:47:27.016Z,10.20
2019-04-03T20:49:56.085Z,10.30
2019-04-03T20:52:24.715Z,10.30
2019-04-03T20:54:53.972Z,10.20
2019-04-03T20:57:22.643Z,10.40
2019-04-03T21:00:01.887Z,10.50
2019-04-03T21:02:21.492Z,10.50
2019-04-03T21:07:16.382Z,10.50
2019-04-03T21:09:44.933Z,10.30
2019-04-03T21:12:13.465Z,10.00
2019-04-03T21:14:42.063Z,10.00
2019-04-03T21:17:10.540Z,10.20
2019-04-03T21:19:39.067Z,10.20
2019-04-03T21:22:07.644Z,10.10
2019-04-03T21:24:36.155Z,9.80
2019-04-03T21:27:04.775Z,9.70
2019-04-03T21:29:33.296Z,9.70
2019-04-03T21:32:01.832Z,9.40
2019-04-03T21:34:32.454Z,9.30
2019-04-03T21:37:00.557Z,9.20
2019-04-03T21:39:29.099Z,9.10
2019-04-03T21:41:57.599Z,8.90
2019-04-03T21:44:26.099Z,8.80
2019-04-03T21:46:54.558Z,8.70
2019-04-03T21:49:23.079Z,8.70
2019-04-03T21:51:51.912Z,8.70
2019-04-03T21:54:20.967Z,8.70
2019-04-03T21:56:49.518Z,8.70
2019-04-03T21:59:18.044Z,8.60
2019-04-03T22:01:46.595Z,8.50
2019-04-03T22:04:15.124Z,8.60
2019-04-03T22:06:43.650Z,8.80
2019-04-03T22:09:12.527Z,8.80
2019-04-03T22:11:40.975Z,8.70
2019-04-03T22:14:11.164Z,8.50
2019-04-03T22:16:39.831Z,8.30
2019-04-03T22:19:08.391Z,8.30
2019-04-03T22:21:36.910Z,8.30
2019-04-03T22:24:06.883Z,8.10
2019-04-03T22:26:35.834Z,8.10
2019-04-03T22:29:04.701Z,8.10
2019-04-03T22:31:33.176Z,8.00
2019-04-03T22:34:01.710Z,7.90
2019-04-03T22:36:30.244Z,7.80
2019-04-03T22:38:58.776Z,7.90
2019-04-03T22:41:27.318Z,8.10
2019-04-03T22:43:55.855Z,8.00
2019-04-03T22:46:24.384Z,7.80
2019-04-03T22:48:52.940Z,7.90
2019-04-03T22:51:21.460Z,7.90
2019-04-03T22:53:50.004Z,7.90
2019-04-03T22:56:18.540Z,7.70
2019-04-03T22:58:48.468Z,7.60
2019-04-03T23:01:17.151Z,7.50
2019-04-03T23:03:45.759Z,7.40
2019-04-03T23:06:14.298Z,7.40
2019-04-03T23:08:42.991Z,7.30
2019-04-03T23:11:11.534Z,7.40
2019-04-03T23:13:40.138Z,7.30
2019-04-03T23:16:09.614Z,7.30
2019-04-03T23:18:39.371Z,7.20
2019-04-03T23:21:08.038Z,7.20
2019-04-03T23:23:36.587Z,7.30
2019-04-03T23:26:05.255Z,7.30
2019-04-03T23:28:34.036Z,7.30
2019-04-03T23:31:03.272Z,7.30
2019-04-03T23:33:31.935Z,7.20
2019-04-03T23:36:00.627Z,7.20
2019-04-03T23:38:29.159Z,7.30
2019-04-03T23:40:57.846Z,7.20
2019-04-03T23:43:26.455Z,7.10
2019-04-03T23:45:54.972Z,7.00
2019-04-03T23:48:23.522Z,7.00
2019-04-03T23:50:52.672Z,7.00
2019-04-03T23:53:21.724Z,7.00
2019-04-03T23:55:50.395Z,6.90
2019-04-03T23:58:19.017Z,6.80
